Airfield :
LOGIN :

Register | Disclaimer

   EN    FR    IT 

 










Legend :    VFR   Marginal VFR   IFR   Intensive IFR   Very Intensive IFR
Visi :
Ceiling :
>= 8 km
>= 3000ft
5 to 8 km
1000 to 3000 ft
1500m to 5 km
500 to 1000 ft
800 to 1500m
200 to 500 ft
< 800m
< 200 ft
Symbols :   Thunderstorms  Fog  Heavy snow  Heavy precipitations  Wind > 20 kt
SIGMETs :     Misc.  Thunderstorms  Icing  Turbulence  Mountain Waves  Volcanic Ashes






- Airport Elevation : 505 ft
- IATA code : SXB


LFST - Strasbourg

CURRENT METAR :
  • 070900Z AUTO 29010KT 250V330 9999 FEW036 SCT042 BKN056 11/03 Q1015 NOSIG

EXPIRED METARs :
  • 070830Z AUTO 31006KT 230V010 9999 SCT034 BKN045 11/04 Q1015 NOSIG
  • 070800Z AUTO 30010KT 260V340 9999 FEW025 SCT070 BKN150 10/04 Q1014 NOSIG
  • 070730Z AUTO 29009KT 250V320 9999 FEW019 OVC074 10/06 Q1014 NOSIG
  • 070700Z AUTO 28007KT 9999 FEW029 BKN052 BKN068 09/06 Q1013 NOSIG
  • 070630Z AUTO 27005KT 240V300 9999 FEW021 BKN027 BKN034 08/06 Q1013 NOSIG

TAF TAF LFST
Valid from the 07 at 06:00 until the 08 at 06:00 UTC


070500Z 0706/0806 30008KT 9999 FEW010 BKN025
PROB40
TEMPO 0709/0715 30013G23KT
BECMG 0717/0719 VRB03KT CAVOK
PROB30
TEMPO 0802/0806 4000 MIFG



MET'MAP, your aeronautical weather chart ! - Copyright ORBIFLY December 2007 - Disclaimer

ORBIFLY MET'MAP TEAM :

Programming & Development : Alexandra Zaïnal
Concept & original design : Baudouin d'Aumeries
Assistance for programming : Marc-Olivier Méhu
Technical & hardware support : Manuel Goepfert

Contact : metmap@orbifly.com




SOURCES & CREDITS :

   NOAA